Weather observations for the past three days for
Beaumont Municipal Airport
Metric (Imperial)
Date Time (cdt) Wind (kph) Vis. (km) Weather Sky Cond. Temperature (ºC) Relative Humidity Wind Chill (°C) Heat Index (°C) Pressure Precipitation (cm)
Air Dwpt 6 hour altimeter (cm) sea level (mb) 1 hr 3 hr 6 hr
Max. Min.
08 04:35 NE 9 16.09 Overcast OVC016 18.1 15.2 83% 76 0.0
08 04:15 NE 11 16.09 Overcast OVC016 18.2 15.1 82% 76.02 0.0
08 03:55 NE 11 16.09 Overcast OVC018 18.5 15 80% 76 0.0
08 03:35 NE 13 16.09 Overcast OVC018 18.9 14.7 77% 76 0.0
08 03:15 NE 9 16.09 Overcast OVC018 19 14.8 77% 75.97 0.0
08 02:55 NE 11 16.09 Overcast OVC018 19.1 15 77% 75.97 0.0
08 02:35 NE 11 16.09 Overcast BKN018 OVC023 19.5 15 75% 75.97 0.0
08 02:15 NE 9 16.09 Overcast OVC024 19.6 15.1 75% 76.02 0.0
08 01:55 NE 9 16.09 Mostly Cloudy BKN024 19.5 15.5 78% 76.02 0.0
08 01:35 NE 6 16.09 Partly Cloudy SCT022 19.6 15.7 78% 76.02 0.0
08 01:15 E 9 16.09 Fair CLR 19.6 15.7 78% 76 0.0
08 00:55 E 11 16.09 Fair CLR 19.7 15.7 24 19.7 78% 76 0.0
08 00:35 E 15 16.09 Fair CLR 20 16 78% 75.97 0.0
08 00:15 E 15 16.09 Fair CLR 20.1 16 77% 76.02 0.0
07 23:55 E 11 16.09 Fair CLR 20 15.7 76% 76.05 0.0
07 23:35 NE 11 16.09 Fair CLR 20 15.5 75% 76.07 0.0
07 23:15 NE 7 16.09 Fair CLR 20.2 15.5 75% 76.07 0.0
07 22:55 NE 7 16.09 Fair CLR 20.4 15.5 74% 76.12 0.0
07 22:35 NE 13 16.09 Fair CLR 20.5 15.5 73% 76.07 0.0
07 22:15 NE 11 16.09 Fair CLR 20.6 15.5 73% 76.07 0.0
07 21:55 NE 9 16.09 Fair CLR 20.6 15.7 74% 76.1 0.0
07 21:35 NE 13 16.09 Fair CLR 21.3 15 67% 76.07 0.0
07 21:15 NE 7 16.09 Fair CLR 21 16.1 74% 76.05 0.0
07 20:55 N 6 16.09 Fair CLR 21 16.3 75% 76.07 0.0
07 20:15 N 9 16.09 Fair CLR 21.5 16.5 73% 76.02 0.0
07 19:55 N 6 16.09 Fair CLR 22.5 16.6 69% 76.02 0.0
07 19:35 NE 9 16.09 Fair CLR 23.1 16.6 67% 76.02 0.0
07 19:15 E 11 16.09 Partly Cloudy SCT050 23.6 16.7 65% 76 0.0
07 18:55 NE 7 16.09 Fair CLR 24 16.4 25.9 22 63% 25 76.02 0.0
07 18:35 NE 11 16.09 Fair CLR 24 16.3 62% 25 76 0.0
07 18:15 NE 9 16.09 Fair CLR 24.1 16.5 63% 25 76 0.0
07 17:55 NE 17 16.09 Fair CLR 24.2 16.4 62% 25 76 0.0
07 17:35 NE 13 16.09 Fair CLR 24.5 16.5 61% 26 76 0.0
07 17:15 N 11 16.09 Fair CLR 24.7 16.7 61% 26 76.02 0.0
07 16:55 NE 17 16.09 Fair CLR 25.3 16.9 60% 26 76.02 0.0
07 16:35 NE 11 16.09 Partly Cloudy SCT048 25.9 16.9 58% 27 76.02 0.0
07 16:15 NE 13 16.09 Mostly Cloudy BKN048 25.2 16.6 59% 26 76.02 0.0
07 15:55 N 17 16.09 Mostly Cloudy BKN048 24.8 16.6 60% 26 76.05 0.0
07 15:35 NE 11 16.09 Overcast OVC048 24.7 16.7 61% 26 76.05 0.0
07 15:15 NE 17 16.09 Overcast SCT027 OVC048 24.3 16.9 63% 25 76.07 0.0
07 14:55 N 11 16.09 Overcast BKN027 OVC046 23.9 16.7 64% 25 76.1 0.0
07 14:35 N 15 16.09 Mostly Cloudy BKN025 BKN046 24.3 16.8 63% 25 76.1 0.0
07 14:15 N 13 16.09 Mostly Cloudy SCT025 BKN048 24.4 17 63% 25 76.1 0.0
07 13:55 N 19 16.09 Fair CLR 23.9 16.5 63% 25 76.12 0.0
07 13:35 NE 11 G 30 16.09 Partly Cloudy SCT023 23.9 16.6 64% 25 76.12 0.0
07 13:15 NE 19 16.09 Fair CLR 22.7 16.2 67% 76.15 0.0
07 12:55 N 19 G 30 16.09 Fair CLR 21.9 15.6 21.9 15.5 68% 76.15 0.0
07 12:35 N 15 16.09 Partly Cloudy SCT016 SCT045 20.9 15.2 70% 76.15 0.0
07 12:15 N 9 16.09 Mostly Cloudy BKN014 BKN045 20.1 15 73% 76.15 0.0
07 11:55 N 17 16.09 Overcast OVC014 19.6 14.6 73% 76.2 0.0
07 11:35 N 15 16.09 Overcast BKN014 OVC046 18.5 14.3 77% 76.2 0.0
07 11:15 N 15 16.09 Overcast OVC012 18.6 14.2 76% 76.2 0.0
07 10:55 NE 19 16.09 Overcast BKN012 OVC041 17.9 14.1 79% 76.17 0.0
07 10:35 NE 19 16.09 Overcast BKN010 OVC041 17.5 14 80% 76.15 0.0
07 10:15 N 17 16.09 Overcast OVC010 16.6 13.7 83% 76.2 0.0
07 09:55 N 19 16.09 Overcast OVC008 16.7 13.8 83% 76.2 0.0
07 09:35 N 15 16.09 Overcast OVC008 16.3 13.6 84% 76.23 0.0
07 09:15 N 15 G 30 16.09 Overcast OVC008 15.8 13.5 86% 76.23 0.0
07 08:55 N 11 16.09 Overcast OVC008 15.8 13.7 87% 76.23 0.0
07 08:35 N 15 16.09 Overcast OVC008 15.8 13.8 88% 76.17 0.0
07 08:15 N 19 16.09 Overcast OVC008 15.7 13.7 88% 76.17 0.0
07 07:55 N 15 G 28 16.09 Overcast OVC008 15.6 13.9 90% 76.17 0.0
07 07:35 N 13 16.09 Overcast OVC008 15.7 14 90% 76.15 0.0
07 07:15 NE 15 16.09 Overcast OVC010 15.9 14 89% 76.1 0.0
07 06:55 NE 9 16.09 Overcast OVC010 16.1 14.1 21 16 88% 76.07 0.0
07 06:35 N 11 16.09 Overcast BKN010 BKN024 OVC034 16.1 14.2 89% 76.05 0.0
07 06:15 NE 11 16.09 Overcast BKN008 BKN022 OVC032 16.2 14.1 87% 76.05 0.0
07 05:55 NE 19 G 28 16.09 Overcast BKN008 OVC022 16.2 14.5 90% 76.02 0.0
07 05:35 NE 13 6.44 Fog/Mist BKN006 OVC010 16 15 94% 76.02 0.0
07 05:15 N 13 6.44 Fog/Mist OVC006 16.3 15.1 93% 76.02 0.0
07 04:55 N 19 G 30 8.05 Fog/Mist OVC006 16.5 15.2 92% 76.02 0.0
07 04:35 N 19 G 31 8.05 Fog/Mist OVC006 16.7 15.5 93% 76 0.0
07 04:15 N 20 G 30 8.05 Fog/Mist OVC006 17 15.6 92% 76 0.0
07 03:55 N 22 G 28 8.05 Fog/Mist OVC006 17.4 15.8 90% 75.97 0.0
07 03:35 N 24 11.27 Overcast OVC006 17.8 16.2 90% 75.95 0.0
07 03:15 N 22 G 30 8.05 Fog/Mist OVC006 18.1 16.5 90% 75.97 0.0
07 02:55 N 24 11.27 Overcast OVC006 18.5 17 91% 75.95 0.0
07 02:35 N 19 G 26 11.27 Overcast OVC006 18.7 17.2 91% 75.95 0.0
07 02:15 N 20 11.27 Overcast OVC006 19 17.6 92% 75.95 0.0
07 01:55 N 17 11.27 Overcast OVC006 20 18.7 92% 75.95 0.0
07 01:35 N 19 G 31 11.27 Overcast OVC006 20.1 18.8 92% 75.95 0.0
07 01:15 N 13 8.05 Fog/Mist OVC006 20.6 19.5 93% 75.92 0.0
07 00:55 N 13 8.05 Fog/Mist OVC006 21 19.9 26 21 93% 75.92 0.0
07 00:35 N 13 4.83 Drizzle OVC006 21.5 20.4 93% 75.92 0.0
07 00:15 N 20 G 28 6.44 Drizzle OVC006 22.4 21.1 92% 75.92 0.0
06 23:55 NW 6 6.44 Fog/Mist OVC006 24.1 23 94% 23 75.9 0.0
06 23:35 Calm 6.44 Fog/Mist OVC006 24.1 23 94% 23 75.9 0.0
06 23:15 Calm 6.44 Fog/Mist OVC006 24 23 94% 23 75.9 0.0
06 22:55 Calm 6.44 Fog/Mist OVC006 24 23 94% 23 75.87 0.0
06 22:35 Calm 6.44 Fog/Mist OVC008 24 22.8 93% 23 75.84 0.0
06 22:15 Calm 6.44 Fog/Mist SCT008 SCT026 BKN060 23.8 22.8 94% 75.82 0.0
06 21:55 S 6 6.44 Fog/Mist SCT026 BKN080 23.7 22.6 94% 75.82 0.0
06 21:35 Calm 8.05 Fog/Mist SCT007 SCT022 OVC090 24 22.7 92% 23 75.82 0.0
06 21:15 Calm 8.05 Fog/Mist SCT007 SCT022 BKN090 24.2 23 93% 24 75.79 0.0
06 20:35 S 7 11.27 Partly Cloudy SCT085 24.5 22.9 91% 25 75.74 0.0
06 20:15 S 7 8.05 Fog/Mist SCT095 24.6 22.8 90% 25 75.72 0.0
06 19:55 S 11 11.27 Partly Cloudy SCT095 25 23 89% 26 75.69 0.0
06 19:35 S 9 11.27 Partly Cloudy SCT032 SCT039 SCT095 25.4 23 87% 27 75.69 0.0
06 19:15 S 13 11.27 Overcast SCT020 SCT027 OVC032 25.8 23 85% 27 75.69 0.0
06 18:55 S 13 11.27 Overcast SCT018 BKN022 OVC032 26 23 28.6 26 84% 28 75.69 0.0
06 18:35 S 13 16.09 Overcast BKN016 OVC024 26.2 23 83% 28 75.69 0.0
06 18:15 S 13 16.09 Overcast BKN016 OVC022 26.4 22.7 80% 28 75.67 0.0
06 17:55 S 15 16.09 Mostly Cloudy BKN018 BKN024 BKN032 27 22.7 77% 29 75.67 0.0
06 17:35 S 15 11.27 Mostly Cloudy SCT020 SCT025 BKN032 27.2 22.7 76% 30 75.64 0.0
06 17:15 S 15 2.82 Overcast with Haze BKN022 OVC029 27.6 22.6 74% 30 75.64 0.0
06 16:55 S 15 4.02 Overcast with Haze OVC022 27.5 22.6 75% 30 75.67 0.0
06 16:35 S 11 3.22 Overcast with Haze OVC022 28 22.5 72% 31 75.67 0.0
06 16:15 S 19 G 28 3.22 Mostly Cloudy with Haze BKN018 28.1 22.4 71% 31 75.67 0.0
06 15:55 S 20 G 28 3.22 Partly Cloudy with Haze SCT018 28.2 22.4 71% 31 75.67 0.0
06 15:35 S 17 4.02 Partly Cloudy with Haze SCT018 SCT055 27.4 22.8 76% 30 75.69 0.0
06 15:15 S 17 4.83 Mostly Cloudy with Haze SCT018 SCT025 BKN055 26.7 22.6 78% 29 75.72 0.0
06 14:55 SE 13 8.05 Overcast with Haze BKN020 BKN027 OVC060 27.3 22.7 76% 30 75.72 0.0
06 14:35 S 15 G 28 8.05 Overcast with Haze SCT022 BKN028 OVC033 28.2 22.5 71% 31 75.72 0.0
06 14:15 SE 15 11.27 Overcast BKN025 OVC030 28.5 22.8 71% 32 75.74 0.0
06 13:55 S 9 6.44 Partly Cloudy with Haze SCT021 SCT060 SCT070 28.2 22.9 73% 31 75.77 0.0
06 13:35 S 13 6.44 Partly Cloudy with Haze SCT019 SCT024 SCT043 27.6 22.5 74% 30 75.79 0.0
06 13:15 S 13 8.05 Mostly Cloudy with Haze SCT017 SCT024 BKN030 27.8 22.6 73% 31 75.82 0.0
06 12:55 S 13 6.44 Overcast with Haze BKN017 BKN022 OVC029 27.7 23 27.7 23 76% 31 75.82 0.0
06 12:35 S 15 6.44 Overcast with Haze BKN015 BKN022 OVC030 27.5 22.9 76% 30 75.84 0.0
06 12:15 S 17 6.44 Overcast with Haze BKN015 BKN023 OVC028 26.8 22.8 79% 29 75.84 0.0
06 11:55 S 15 6.44 Overcast with Haze SCT013 OVC027 26.3 23 82% 28 75.87 0.0
06 11:35 SE 15 6.44 Overcast with Haze BKN013 BKN018 OVC023 26.1 23 83% 28 75.84 0.0
06 10:55 S 11 3.22 Overcast with Haze BKN013 OVC020 25.9 22.7 83% 28 75.84 0.0
06 10:35 S 15 4.02 Overcast with Haze BKN013 OVC020 26.1 22.9 83% 28 75.82 0.0
06 10:15 S 13 4.02 Overcast with Haze OVC012 26.1 23.1 84% 28 75.79 0.0
06 09:15 S 7 3.22 Fog/Mist OVC008 25 22.9 88% 26 75.79 0.0
06 08:55 S 13 4.02 Fog/Mist OVC008 24.8 22.8 89% 25 75.79 0.0
06 08:35 S 9 4.02 Fog/Mist OVC008 24.4 22.7 90% 24 75.79 0.0
06 08:15 Calm 3.22 Fog/Mist OVC008 23.9 22.5 92% 23 75.79 0.0
06 07:55 SE 6 2.82 Fog/Mist OVC006 23.6 22.4 93% 75.79 0.0
06 07:35 S 6 2.82 Fog/Mist OVC006 23.4 22.2 93% 75.79 0.0
06 07:15 S 7 2.82 Fog/Mist OVC006 23.2 22.1 94% 75.77 0.0
06 06:55 SE 6 6.44 Fog/Mist OVC006 23 22 23.5 22.8 94% 75.74 0.0
06 06:35 SE 6 6.44 Fog/Mist OVC006 23 22 94% 75.72 0.0
06 06:15 SE 6 6.44 Fog/Mist BKN006 OVC042 22.9 21.8 94% 75.72 0.0
06 05:55 Calm 4.83 Fog/Mist BKN006 OVC042 23.1 22 94% 75.72 0.0
06 05:35 S 7 6.44 Fog/Mist BKN008 OVC012 23.2 22 93% 75.69 0.0
06 05:15 S 9 4.02 Fog/Mist OVC008 23.2 22 93% 75.69 0.0
06 04:55 S 11 6.44 Fog/Mist OVC008 23.2 22 93% 75.69 0.0
06 04:35 S 11 6.44 Fog/Mist OVC008 23.3 22 92% 75.69 0.0
06 04:15 SE 9 6.44 Fog/Mist BKN008 BKN012 OVC037 23.1 22 94% 75.69 0.0
06 03:55 SE 7 6.44 Fog/Mist BKN010 OVC038 23.1 21.9 93% 75.72 0.0
06 03:35 S 7 4.83 Fog/Mist BKN008 OVC038 23.1 22 94% 75.72 0.0
06 03:15 S 6 4.83 Fog/Mist OVC008 23.1 21.8 92% 75.74 0.0
06 02:55 S 7 6.44 Fog/Mist BKN010 OVC014 23.1 21.7 92% 75.74 0.0
06 02:35 S 11 4.83 Fog/Mist OVC008 23.3 21.9 92% 75.74 0.0
06 02:15 S 7 4.83 Fog/Mist BKN008 OVC012 23.2 21.8 92% 75.77 0.0
06 01:55 S 11 6.44 Fog/Mist OVC010 23.2 21.7 91% 75.77 0.0
06 01:35 S 9 6.44 Fog/Mist BKN010 BKN023 OVC028 23.1 21.6 91% 75.77 0.0
06 01:15 S 11 6.44 Fog/Mist OVC010 23.2 21.6 91% 75.74 0.0
06 00:55 S 11 6.44 Fog/Mist OVC010 23.5 21.6 24.7 23.3 89% 75.77 0.0
06 00:35 S 11 6.44 Fog/Mist OVC010 23.4 21.6 90% 75.77 0.0
06 00:15 S 11 6.44 Fog/Mist OVC010 23.3 21.7 91% 75.77 0.0
05 23:35 S 13 8.05 Fog/Mist OVC010 23.6 21.7 89% 75.77 0.0
05 23:15 S 13 8.05 Fog/Mist BKN010 BKN016 OVC021 23.5 21.7 90% 75.77 0.0
05 22:55 S 15 8.05 Fog/Mist BKN010 BKN014 OVC023 23.5 21.7 90% 75.77 0.0
05 22:35 S 13 8.05 Fog/Mist BKN010 OVC015 23.5 21.7 90% 75.74 0.0
05 22:15 S 11 8.05 Fog/Mist OVC010 23.5 21.8 90% 75.74 0.0
05 21:55 S 15 8.05 Fog/Mist OVC010 23.5 21.8 90% 75.72 0.0
05 21:35 S 15 8.05 Fog/Mist BKN012 BKN019 BKN041 23.3 21.6 90% 75.69 0.0
05 21:15 S 13 8.05 Fog/Mist BKN012 BKN019 BKN041 23.7 21.7 89% 75.67 0.0
05 20:55 S 15 11.27 Overcast BKN014 BKN036 OVC042 23.9 21.7 88% 24 75.67 0.0
05 20:35 S 13 11.27 Overcast BKN014 OVC038 24 21.7 87% 24 75.64 0.0
05 20:15 S 13 11.27 Overcast BKN014 BKN020 OVC038 24 21.6 87% 24 75.64 0.0
05 19:55 S 17 11.27 Overcast BKN014 OVC020 24.2 21.6 85% 24 75.62 0.0
05 19:35 S 19 16.09 Overcast BKN014 OVC040 24.4 21.4 83% 25 75.62 0.0
05 19:15 S 15 16.09 Overcast SCT016 OVC040 24.5 21.5 83% 25 75.62 0.0
05 18:55 S 15 16.09 Overcast SCT014 OVC040 24.7 21.5 26.9 24.3 82% 25 75.62 0.0
05 18:35 S 22 16.09 Overcast SCT016 SCT036 OVC042 25 21.5 81% 26 75.62 0.0
05 18:15 S 20 G 28 16.09 Overcast SCT018 SCT036 OVC044 25.1 21.4 80% 26 75.62 0.0
05 17:55 S 15 G 28 16.09 Overcast SCT020 SCT026 OVC044 25.3 21.4 79% 26 75.62 0.0
05 17:35 S 17 G 28 16.09 Overcast SCT022 BKN041 OVC046 25.7 21.3 77% 27 75.62 0.0
05 17:15 S 17 G 33 16.09 Overcast BKN022 BKN031 OVC047 25.6 21 76% 27 75.62 0.0
05 16:55 S 17 G 26 16.09 Overcast BKN022 BKN029 OVC033 25.6 21.1 76% 27 75.64 0.0
05 16:35 S 20 G 31 16.09 Overcast BKN020 BKN029 OVC035 25.9 21.3 76% 27 75.64 0.0
05 16:15 S 20 G 30 16.09 Overcast BKN020 BKN025 OVC032 26.4 21.5 75% 28 75.64 0.0
05 15:35 S 15 G 28 16.09 Overcast BKN022 OVC028 25.8 21.1 75% 27 75.69 0.0
05 15:15 S 19 G 28 16.09 Overcast BKN020 OVC028 26.9 21.4 72% 29 75.69 0.0
05 14:55 S 22 G 30 16.09 Overcast BKN020 BKN027 OVC048 26.3 21.4 75% 28 75.72 0.0
05 14:35 S 17 G 26 16.09 Overcast SCT019 BKN024 OVC039 26 21.3 75% 27 75.74 0.0
05 14:15 S 13 11.27 Light Rain BKN019 OVC030 24.7 21.5 82% 25 75.74 0.0
05 13:55 S 17 11.27 Overcast BKN019 BKN025 OVC030 24.5 21.2 82% 25 75.77 0.0
05 13:35 S 13 16.09 Overcast BKN021 OVC031 25.3 20.8 76% 26 75.77 0.0
05 13:15 S 19 G 28 16.09 Overcast BKN023 BKN028 OVC033 25.3 20.6 75% 26 75.77 0.0
05 12:55 S 20 16.09 Overcast SCT023 OVC033 25.6 20.4 25.7 21.5 73% 27 75.77 0.0
05 12:35 S 17 16.09 Overcast BKN021 BKN027 OVC033 25.5 20.7 75% 27 75.77 0.0
05 12:15 S 15 16.09 Overcast BKN021 OVC027 25 20.6 77% 26 75.77 0.0
05 11:55 S 17 16.09 Overcast BKN021 OVC027 25.1 20.7 77% 26 75.79 0.0
05 11:35 S 11 16.09 Overcast OVC024 24.7 20.5 78% 25 75.79 0.0
05 11:15 S 15 16.09 Overcast OVC022 24.4 20.2 78% 25 75.79 0.0
05 10:55 S 20 G 28 16.09 Overcast OVC022 24.5 20.2 77% 25 75.79 0.0
05 10:15 S 17 G 28 16.09 Overcast BKN020 OVC030 24.4 20 77% 25 75.77 0.0
05 09:55 S 17 16.09 Overcast BKN022 OVC030 24.6 20 76% 25 75.77 0.0
05 09:35 S 20 G 26 16.09 Overcast SCT019 BKN028 OVC046 24.5 20.1 77% 25 75.77 0.0
05 09:15 S 19 G 28 16.09 Overcast BKN017 BKN023 OVC033 23.9 20.1 79% 24 75.77 0.0
05 08:55 S 17 G 28 16.09 Overcast SCT017 SCT023 OVC031 23.8 20.1 80% 75.77 0.0
05 08:35 S 11 16.09 Mostly Cloudy SCT017 SCT024 BKN031 23 19.9 83% 75.77 0.0
05 08:15 S 15 16.09 Partly Cloudy SCT017 SCT033 SCT048 23.1 20 83% 75.74 0.0
05 07:55 S 13 16.09 Overcast SCT015 SCT021 OVC033 22.4 19.7 85% 75.74 0.0
05 07:35 S 15 16.09 Overcast SCT015 BKN023 OVC031 22 19.5 86% 75.74 0.0
05 07:15 S 9 16.09 Overcast SCT026 OVC034 21.5 19.2 87% 75.74 0.0
05 06:55 S 11 16.09 Overcast BKN034 OVC045 21.5 19 21.5 18.5 86% 75.72 0.0
05 06:35 S 9 16.09 Overcast SCT021 BKN034 OVC045 21.5 19 86% 75.72 0.0
05 06:15 S 9 16.09 Overcast OVC034 21.3 18.8 86% 75.72 0.0
05 05:55 S 11 16.09 Overcast OVC036 21.5 18.7 84% 75.72 0.0
05 05:35 S 11 16.09 Overcast OVC038 21.5 18.6 84% 75.72 0.0
05 05:15 S 9 16.09 Overcast OVC036 21.5 18.5 83% 75.69 0.0
05 04:55 S 9 16.09 Overcast OVC036 21.4 18.5 84% 75.72 0.0
Date Time (cdt) Wind (kph) Vis. (km) Weather Sky Cond. Air Dwpt Max. Min. Relative Humidity Wind Chill (°C) Heat Index (°C) altimeter (cm) sea level (mb) 1 hr 3 hr 6 hr
6 hour
Temperature (ºC) Pressure Precipitation (cm)